sensor_id;sensor_type;location;lat;lon;timestamp;P1;durP1;ratioP1;P2;durP2;ratioP2
66127;SDS011;52925;52.436;-1.952;2024-03-02T16:38:24;2.50;;;2.30;;
66127;SDS011;52925;52.436;-1.952;2024-03-02T16:39:45;4.13;;;2.30;;
66127;SDS011;52925;52.436;-1.952;2024-03-02T16:41:07;2.47;;;2.28;;
66127;SDS011;52925;52.436;-1.952;2024-03-02T16:42:28;2.55;;;2.35;;
66127;SDS011;52925;52.436;-1.952;2024-03-02T16:43:48;3.75;;;2.38;;
66127;SDS011;52925;52.436;-1.952;2024-03-02T16:45:09;2.05;;;1.90;;
66127;SDS011;52925;52.436;-1.952;2024-03-02T16:46:29;3.55;;;2.40;;
66127;SDS011;52925;52.436;-1.952;2024-03-02T16:47:51;2.22;;;2.03;;
66127;SDS011;52925;52.436;-1.952;2024-03-02T16:49:11;5.35;;;2.42;;
66127;SDS011;52925;52.436;-1.952;2024-03-02T16:50:31;2.22;;;1.88;;
66127;SDS011;52925;52.436;-1.952;2024-03-02T16:51:51;2.50;;;1.90;;
66127;SDS011;52925;52.436;-1.952;2024-03-02T16:53:12;1.90;;;1.75;;
66127;SDS011;52925;52.436;-1.952;2024-03-02T16:54:36;2.22;;;2.03;;
66127;SDS011;52925;52.436;-1.952;2024-03-02T16:55:58;1.95;;;1.83;;
66127;SDS011;52925;52.436;-1.952;2024-03-02T16:57:18;1.80;;;1.70;;
66127;SDS011;52925;52.436;-1.952;2024-03-02T16:58:40;2.65;;;2.00;;
66127;SDS011;52925;52.436;-1.952;2024-03-02T17:00:00;2.20;;;1.70;;
66127;SDS011;52925;52.436;-1.952;2024-03-02T17:01:21;4.47;;;1.80;;
66127;SDS011;52925;52.436;-1.952;2024-03-02T17:02:41;2.78;;;1.58;;
66127;SDS011;52925;52.436;-1.952;2024-03-02T17:04:02;2.40;;;1.50;;
66127;SDS011;52925;52.436;-1.952;2024-03-02T17:05:24;1.50;;;1.30;;
66127;SDS011;52925;52.436;-1.952;2024-03-02T17:06:46;2.17;;;1.40;;
66127;SDS011;52925;52.436;-1.952;2024-03-02T17:08:06;1.88;;;1.70;;
66127;SDS011;52925;52.436;-1.952;2024-03-02T17:09:27;1.63;;;1.52;;
66127;SDS011;52925;52.436;-1.952;2024-03-02T17:10:49;1.40;;;1.30;;
66127;SDS011;52925;52.436;-1.952;2024-03-02T17:12:10;1.27;;;1.17;;
66127;SDS011;52925;52.436;-1.952;2024-03-02T17:13:31;1.75;;;1.42;;
66127;SDS011;52925;52.436;-1.952;2024-03-02T17:14:51;1.55;;;1.45;;
66127;SDS011;52925;52.436;-1.952;2024-03-02T17:16:11;2.55;;;1.30;;
66127;SDS011;52925;52.436;-1.952;2024-03-02T17:17:33;1.88;;;1.50;;
66127;SDS011;52925;52.436;-1.952;2024-03-02T17:18:54;1.40;;;1.20;;
66127;SDS011;52925;52.436;-1.952;2024-03-02T17:20:15;1.27;;;1.17;;
66127;SDS011;52925;52.436;-1.952;2024-03-02T17:21:35;1.05;;;0.98;;
66127;SDS011;52925;52.436;-1.952;2024-03-02T17:22:56;1.48;;;1.38;;
66127;SDS011;52925;52.436;-1.952;2024-03-02T17:24:16;1.20;;;1.10;;
66127;SDS011;52925;52.436;-1.952;2024-03-02T17:25:37;1.25;;;1.15;;
66127;SDS011;52925;52.436;-1.952;2024-03-02T17:26:58;1.30;;;1.20;;
66127;SDS011;52925;52.436;-1.952;2024-03-02T17:28:20;1.38;;;1.20;;
66127;SDS011;52925;52.436;-1.952;2024-03-02T17:29:41;1.40;;;1.30;;
66127;SDS011;52925;52.436;-1.952;2024-03-02T17:31:01;1.80;;;1.33;;
66127;SDS011;52925;52.436;-1.952;2024-03-02T17:32:22;1.30;;;1.13;;
66127;SDS011;52925;52.436;-1.952;2024-03-02T17:33:43;2.03;;;1.13;;
66127;SDS011;52925;52.436;-1.952;2024-03-02T17:35:03;1.88;;;1.10;;
66127;SDS011;52925;52.436;-1.952;2024-03-02T17:36:25;1.35;;;1.23;;
66127;SDS011;52925;52.436;-1.952;2024-03-02T17:37:45;1.25;;;0.90;;
66127;SDS011;52925;52.436;-1.952;2024-03-02T17:39:10;1.08;;;0.98;;
66127;SDS011;52925;52.436;-1.952;2024-03-02T17:40:30;1.13;;;0.98;;
66127;SDS011;52925;52.436;-1.952;2024-03-02T17:41:50;0.90;;;0.90;;
66127;SDS011;52925;52.436;-1.952;2024-03-02T17:43:11;1.10;;;1.00;;
66127;SDS011;52925;52.436;-1.952;2024-03-02T17:44:33;0.93;;;0.90;;
66127;SDS011;52925;52.436;-1.952;2024-03-02T17:45:54;1.40;;;1.30;;
66127;SDS011;52925;52.436;-1.952;2024-03-02T17:47:15;1.05;;;1.00;;
66127;SDS011;52925;52.436;-1.952;2024-03-02T17:48:35;1.05;;;1.00;;
66127;SDS011;52925;52.436;-1.952;2024-03-02T17:49:55;1.10;;;1.00;;
66127;SDS011;52925;52.436;-1.952;2024-03-02T17:51:15;1.08;;;1.00;;
66127;SDS011;52925;52.436;-1.952;2024-03-02T17:52:36;1.20;;;1.10;;
66127;SDS011;52925;52.436;-1.952;2024-03-02T17:53:56;1.02;;;0.93;;
66127;SDS011;52925;52.436;-1.952;2024-03-02T17:55:17;1.10;;;1.00;;
66127;SDS011;52925;52.436;-1.952;2024-03-02T17:56:37;1.05;;;0.95;;
66127;SDS011;52925;52.436;-1.952;2024-03-02T17:57:58;1.02;;;0.98;;
66127;SDS011;52925;52.436;-1.952;2024-03-02T17:59:19;1.20;;;1.10;;
66127;SDS011;52925;52.436;-1.952;2024-03-02T18:00:40;0.90;;;0.90;;
66127;SDS011;52925;52.436;-1.952;2024-03-02T18:02:00;1.60;;;1.20;;
66127;SDS011;52925;52.436;-1.952;2024-03-02T18:03:21;1.25;;;1.05;;
66127;SDS011;52925;52.436;-1.952;2024-03-02T18:04:41;1.30;;;1.20;;
66127;SDS011;52925;52.436;-1.952;2024-03-02T18:06:02;1.30;;;1.13;;
66127;SDS011;52925;52.436;-1.952;2024-03-02T18:07:22;1.83;;;1.27;;
66127;SDS011;52925;52.436;-1.952;2024-03-02T18:08:43;2.10;;;1.48;;
66127;SDS011;52925;52.436;-1.952;2024-03-02T18:10:03;1.40;;;1.30;;
66127;SDS011;52925;52.436;-1.952;2024-03-02T18:11:25;1.30;;;1.20;;
66127;SDS011;52925;52.436;-1.952;2024-03-02T18:12:45;1.40;;;1.30;;
66127;SDS011;52925;52.436;-1.952;2024-03-02T18:14:06;1.63;;;1.40;;
66127;SDS011;52925;52.436;-1.952;2024-03-02T18:15:27;1.55;;;1.45;;
66127;SDS011;52925;52.436;-1.952;2024-03-02T18:16:48;1.27;;;1.17;;
66127;SDS011;52925;52.436;-1.952;2024-03-02T18:18:09;1.80;;;1.70;;
66127;SDS011;52925;52.436;-1.952;2024-03-02T18:19:31;1.80;;;1.70;;
66127;SDS011;52925;52.436;-1.952;2024-03-02T18:20:51;1.63;;;1.50;;
66127;SDS011;52925;52.436;-1.952;2024-03-02T18:22:11;1.60;;;1.50;;
66127;SDS011;52925;52.436;-1.952;2024-03-02T18:23:31;2.05;;;1.88;;
66127;SDS011;52925;52.436;-1.952;2024-03-02T18:24:51;1.77;;;1.67;;
66127;SDS011;52925;52.436;-1.952;2024-03-02T18:26:11;2.00;;;1.90;;
66127;SDS011;52925;52.436;-1.952;2024-03-02T18:27:32;1.65;;;1.55;;
66127;SDS011;52925;52.436;-1.952;2024-03-02T18:28:52;2.00;;;1.85;;
66127;SDS011;52925;52.436;-1.952;2024-03-02T18:30:13;1.63;;;1.52;;
66127;SDS011;52925;52.436;-1.952;2024-03-02T18:31:35;2.78;;;2.17;;
66127;SDS011;52925;52.436;-1.952;2024-03-02T18:32:55;2.15;;;1.90;;
66127;SDS011;52925;52.436;-1.952;2024-03-02T18:34:15;2.10;;;2.00;;
66127;SDS011;52925;52.436;-1.952;2024-03-02T18:35:36;2.38;;;2.17;;
66127;SDS011;52925;52.436;-1.952;2024-03-02T18:36:56;2.42;;;2.22;;
66127;SDS011;52925;52.436;-1.952;2024-03-02T18:38:17;2.40;;;2.20;;
66127;SDS011;52925;52.436;-1.952;2024-03-02T18:39:37;2.50;;;2.30;;
66127;SDS011;52925;52.436;-1.952;2024-03-02T18:40:58;2.53;;;2.33;;
66127;SDS011;52925;52.436;-1.952;2024-03-02T18:42:18;2.72;;;2.53;;
66127;SDS011;52925;52.436;-1.952;2024-03-02T18:43:38;3.38;;;3.00;;
66127;SDS011;52925;52.436;-1.952;2024-03-02T18:44:58;3.85;;;3.35;;
66127;SDS011;52925;52.436;-1.952;2024-03-02T18:46:22;4.43;;;4.03;;
66127;SDS011;52925;52.436;-1.952;2024-03-02T18:47:45;3.85;;;3.47;;
66127;SDS011;52925;52.436;-1.952;2024-03-02T18:49:06;4.10;;;3.80;;
66127;SDS011;52925;52.436;-1.952;2024-03-02T18:50:26;4.53;;;4.13;;
66127;SDS011;52925;52.436;-1.952;2024-03-02T18:51:46;4.55;;;4.07;;
66127;SDS011;52925;52.436;-1.952;2024-03-02T18:53:06;4.70;;;4.30;;
66127;SDS011;52925;52.436;-1.952;2024-03-02T18:54:27;4.20;;;3.88;;
66127;SDS011;52925;52.436;-1.952;2024-03-02T18:55:47;4.47;;;4.07;;
66127;SDS011;52925;52.436;-1.952;2024-03-02T18:57:08;4.65;;;4.25;;
66127;SDS011;52925;52.436;-1.952;2024-03-02T18:58:28;4.60;;;4.20;;
66127;SDS011;52925;52.436;-1.952;2024-03-02T18:59:49;4.38;;;3.97;;
66127;SDS011;52925;52.436;-1.952;2024-03-02T19:01:08;4.50;;;4.13;;
66127;SDS011;52925;52.436;-1.952;2024-03-02T19:02:29;4.90;;;4.40;;
66127;SDS011;52925;52.436;-1.952;2024-03-02T19:03:50;4.90;;;4.50;;
66127;SDS011;52925;52.436;-1.952;2024-03-02T19:05:11;5.07;;;4.68;;
66127;SDS011;52925;52.436;-1.952;2024-03-02T19:06:31;5.78;;;5.25;;
66127;SDS011;52925;52.436;-1.952;2024-03-02T19:07:52;5.25;;;4.75;;
66127;SDS011;52925;52.436;-1.952;2024-03-02T19:09:12;5.30;;;4.65;;
66127;SDS011;52925;52.436;-1.952;2024-03-02T19:10:34;5.22;;;4.72;;
66127;SDS011;52925;52.436;-1.952;2024-03-02T19:11:53;5.68;;;4.60;;
66127;SDS011;52925;52.436;-1.952;2024-03-02T19:13:14;5.93;;;5.20;;
66127;SDS011;52925;52.436;-1.952;2024-03-02T19:14:34;5.65;;;5.07;;
66127;SDS011;52925;52.436;-1.952;2024-03-02T19:15:55;5.55;;;5.00;;
66127;SDS011;52925;52.436;-1.952;2024-03-02T19:17:15;6.22;;;5.63;;
66127;SDS011;52925;52.436;-1.952;2024-03-02T19:18:36;6.25;;;5.65;;
66127;SDS011;52925;52.436;-1.952;2024-03-02T19:19:58;6.35;;;5.55;;
66127;SDS011;52925;52.436;-1.952;2024-03-02T19:21:19;5.72;;;5.22;;
66127;SDS011;52925;52.436;-1.952;2024-03-02T19:22:39;6.43;;;5.80;;
66127;SDS011;52925;52.436;-1.952;2024-03-02T19:24:02;6.93;;;5.88;;
66127;SDS011;52925;52.436;-1.952;2024-03-02T19:25:22;6.82;;;6.22;;
66127;SDS011;52925;52.436;-1.952;2024-03-02T19:26:44;6.55;;;5.95;;
66127;SDS011;52925;52.436;-1.952;2024-03-02T19:28:04;6.93;;;6.22;;
66127;SDS011;52925;52.436;-1.952;2024-03-02T19:29:25;6.95;;;6.35;;
66127;SDS011;52925;52.436;-1.952;2024-03-02T19:30:47;6.15;;;5.63;;
66127;SDS011;52925;52.436;-1.952;2024-03-02T19:32:07;6.53;;;5.93;;
66127;SDS011;52925;52.436;-1.952;2024-03-02T19:33:28;7.40;;;6.70;;
66127;SDS011;52925;52.436;-1.952;2024-03-02T19:34:48;7.40;;;6.70;;
66127;SDS011;52925;52.436;-1.952;2024-03-02T19:36:10;7.40;;;6.70;;
66127;SDS011;52925;52.436;-1.952;2024-03-02T19:37:30;7.53;;;6.82;;
66127;SDS011;52925;52.436;-1.952;2024-03-02T19:38:51;6.88;;;6.28;;
66127;SDS011;52925;52.436;-1.952;2024-03-02T19:40:14;7.07;;;6.40;;
66127;SDS011;52925;52.436;-1.952;2024-03-02T19:41:39;7.82;;;6.60;;
66127;SDS011;52925;52.436;-1.952;2024-03-02T19:42:58;7.60;;;6.70;;
66127;SDS011;52925;52.436;-1.952;2024-03-02T19:44:21;7.35;;;6.65;;
66127;SDS011;52925;52.436;-1.952;2024-03-02T19:46:02;7.72;;;6.78;;
66127;SDS011;52925;52.436;-1.952;2024-03-02T19:47:23;7.65;;;6.82;;
66127;SDS011;52925;52.436;-1.952;2024-03-02T19:48:42;7.75;;;6.95;;
66127;SDS011;52925;52.436;-1.952;2024-03-02T19:50:04;7.68;;;6.88;;
66127;SDS011;52925;52.436;-1.952;2024-03-02T19:51:26;7.85;;;7.05;;
66127;SDS011;52925;52.436;-1.952;2024-03-02T19:52:47;7.38;;;6.63;;
66127;SDS011;52925;52.436;-1.952;2024-03-02T19:54:07;7.38;;;6.50;;
66127;SDS011;52925;52.436;-1.952;2024-03-02T19:55:28;7.28;;;6.60;;
66127;SDS011;52925;52.436;-1.952;2024-03-02T19:56:48;7.22;;;6.53;;
66127;SDS011;52925;52.436;-1.952;2024-03-02T19:58:11;7.47;;;6.78;;
66127;SDS011;52925;52.436;-1.952;2024-03-02T19:59:31;7.82;;;7.10;;
66127;SDS011;52925;52.436;-1.952;2024-03-02T20:00:52;7.30;;;6.60;;
66127;SDS011;52925;52.436;-1.952;2024-03-02T20:02:12;7.45;;;6.75;;
66127;SDS011;52925;52.436;-1.952;2024-03-02T20:03:32;8.32;;;7.18;;
66127;SDS011;52925;52.436;-1.952;2024-03-02T20:04:52;7.57;;;6.30;;
66127;SDS011;52925;52.436;-1.952;2024-03-02T20:06:13;7.43;;;6.72;;
66127;SDS011;52925;52.436;-1.952;2024-03-02T20:07:35;7.32;;;6.63;;
66127;SDS011;52925;52.436;-1.952;2024-03-02T20:08:58;6.57;;;5.97;;
66127;SDS011;52925;52.436;-1.952;2024-03-02T20:10:18;7.65;;;6.78;;
66127;SDS011;52925;52.436;-1.952;2024-03-02T20:11:39;6.97;;;6.38;;
66127;SDS011;52925;52.436;-1.952;2024-03-02T20:12:59;6.93;;;6.32;;
66127;SDS011;52925;52.436;-1.952;2024-03-02T20:14:20;6.90;;;6.20;;
66127;SDS011;52925;52.436;-1.952;2024-03-02T20:15:42;6.93;;;6.22;;
66127;SDS011;52925;52.436;-1.952;2024-03-02T20:17:03;7.00;;;6.32;;
66127;SDS011;52925;52.436;-1.952;2024-03-02T20:18:23;6.82;;;6.20;;
66127;SDS011;52925;52.436;-1.952;2024-03-02T20:19:44;6.45;;;5.88;;
66127;SDS011;52925;52.436;-1.952;2024-03-02T20:21:04;7.38;;;6.68;;
66127;SDS011;52925;52.436;-1.952;2024-03-02T20:22:25;7.60;;;6.75;;
66127;SDS011;52925;52.436;-1.952;2024-03-02T20:23:46;6.90;;;6.30;;
66127;SDS011;52925;52.436;-1.952;2024-03-02T20:25:08;6.50;;;5.93;;
66127;SDS011;52925;52.436;-1.952;2024-03-02T20:26:30;8.48;;;6.40;;
66127;SDS011;52925;52.436;-1.952;2024-03-02T20:27:52;7.30;;;6.60;;
66127;SDS011;52925;52.436;-1.952;2024-03-02T20:29:12;7.00;;;6.30;;
66127;SDS011;52925;52.436;-1.952;2024-03-02T20:30:32;6.43;;;5.82;;
66127;SDS011;52925;52.436;-1.952;2024-03-02T20:31:52;7.28;;;6.57;;
66127;SDS011;52925;52.436;-1.952;2024-03-02T20:33:14;6.70;;;6.00;;
66127;SDS011;52925;52.436;-1.952;2024-03-02T20:34:34;7.15;;;6.45;;
66127;SDS011;52925;52.436;-1.952;2024-03-02T20:35:55;6.10;;;5.50;;
66127;SDS011;52925;52.436;-1.952;2024-03-02T20:37:14;6.55;;;5.90;;
66127;SDS011;52925;52.436;-1.952;2024-03-02T20:38:42;6.43;;;5.82;;
66127;SDS011;52925;52.436;-1.952;2024-03-02T20:40:05;6.82;;;6.15;;
66127;SDS011;52925;52.436;-1.952;2024-03-02T20:41:28;7.20;;;6.40;;
66127;SDS011;52925;52.436;-1.952;2024-03-02T20:42:47;7.07;;;6.38;;
66127;SDS011;52925;52.436;-1.952;2024-03-02T20:44:08;7.15;;;6.45;;
66127;SDS011;52925;52.436;-1.952;2024-03-02T20:45:31;6.70;;;6.10;;
66127;SDS011;52925;52.436;-1.952;2024-03-02T20:46:53;7.50;;;6.60;;
66127;SDS011;52925;52.436;-1.952;2024-03-02T20:48:13;7.07;;;6.43;;
66127;SDS011;52925;52.436;-1.952;2024-03-02T20:49:35;6.72;;;6.03;;
66127;SDS011;52925;52.436;-1.952;2024-03-02T20:50:55;7.50;;;6.70;;
66127;SDS011;52925;52.436;-1.952;2024-03-02T20:52:16;7.68;;;6.97;;
66127;SDS011;52925;52.436;-1.952;2024-03-02T20:53:36;7.63;;;6.93;;
66127;SDS011;52925;52.436;-1.952;2024-03-02T20:54:57;7.47;;;6.78;;
66127;SDS011;52925;52.436;-1.952;2024-03-02T20:56:18;7.30;;;6.60;;
66127;SDS011;52925;52.436;-1.952;2024-03-02T20:57:39;7.40;;;6.70;;
66127;SDS011;52925;52.436;-1.952;2024-03-02T20:58:59;7.28;;;6.50;;
66127;SDS011;52925;52.436;-1.952;2024-03-02T21:00:20;7.38;;;6.68;;
66127;SDS011;52925;52.436;-1.952;2024-03-02T21:01:40;7.55;;;6.82;;
66127;SDS011;52925;52.436;-1.952;2024-03-02T21:03:02;7.32;;;6.63;;
66127;SDS011;52925;52.436;-1.952;2024-03-02T21:04:22;6.95;;;6.25;;
66127;SDS011;52925;52.436;-1.952;2024-03-02T21:05:43;7.00;;;6.40;;
66127;SDS011;52925;52.436;-1.952;2024-03-02T21:07:03;6.78;;;6.13;;
66127;SDS011;52925;52.436;-1.952;2024-03-02T21:08:24;7.28;;;6.57;;
66127;SDS011;52925;52.436;-1.952;2024-03-02T21:09:44;6.28;;;5.68;;
66127;SDS011;52925;52.436;-1.952;2024-03-02T21:11:05;6.72;;;6.13;;
66127;SDS011;52925;52.436;-1.952;2024-03-02T21:12:26;6.53;;;5.93;;
66127;SDS011;52925;52.436;-1.952;2024-03-02T21:13:47;6.35;;;5.85;;
66127;SDS011;52925;52.436;-1.952;2024-03-02T21:15:07;6.35;;;5.75;;
66127;SDS011;52925;52.436;-1.952;2024-03-02T21:16:29;6.65;;;6.05;;
66127;SDS011;52925;52.436;-1.952;2024-03-02T21:17:49;6.47;;;5.88;;
66127;SDS011;52925;52.436;-1.952;2024-03-02T21:19:09;6.18;;;5.68;;
66127;SDS011;52925;52.436;-1.952;2024-03-02T21:20:33;6.30;;;5.70;;
66127;SDS011;52925;52.436;-1.952;2024-03-02T21:21:54;6.30;;;5.80;;
66127;SDS011;52925;52.436;-1.952;2024-03-02T21:23:14;5.82;;;5.30;;
66127;SDS011;52925;52.436;-1.952;2024-03-02T21:24:35;6.32;;;5.72;;
66127;SDS011;52925;52.436;-1.952;2024-03-02T21:25:55;5.82;;;5.32;;
66127;SDS011;52925;52.436;-1.952;2024-03-02T21:27:16;5.97;;;5.45;;
66127;SDS011;52925;52.436;-1.952;2024-03-02T21:28:38;6.53;;;5.55;;
66127;SDS011;52925;52.436;-1.952;2024-03-02T21:29:59;5.65;;;5.15;;
66127;SDS011;52925;52.436;-1.952;2024-03-02T21:31:19;5.30;;;4.80;;
66127;SDS011;52925;52.436;-1.952;2024-03-02T21:32:39;5.93;;;5.25;;
66127;SDS011;52925;52.436;-1.952;2024-03-02T21:33:59;6.97;;;5.32;;
66127;SDS011;52925;52.436;-1.952;2024-03-02T21:35:21;5.75;;;5.25;;
66127;SDS011;52925;52.436;-1.952;2024-03-02T21:36:42;5.80;;;5.20;;
66127;SDS011;52925;52.436;-1.952;2024-03-02T21:38:02;5.78;;;5.25;;
66127;SDS011;52925;52.436;-1.952;2024-03-02T21:39:24;6.10;;;5.35;;
66127;SDS011;52925;52.436;-1.952;2024-03-02T21:40:45;5.68;;;5.10;;
66127;SDS011;52925;52.436;-1.952;2024-03-02T21:42:07;5.85;;;5.35;;
66127;SDS011;52925;52.436;-1.952;2024-03-02T21:43:28;6.28;;;5.68;;
66127;SDS011;52925;52.436;-1.952;2024-03-02T21:44:52;6.10;;;5.60;;
66127;SDS011;52925;52.436;-1.952;2024-03-02T21:46:12;5.70;;;5.20;;
66127;SDS011;52925;52.436;-1.952;2024-03-02T21:47:33;5.00;;;4.57;;
66127;SDS011;52925;52.436;-1.952;2024-03-02T21:48:53;6.18;;;5.45;;
66127;SDS011;52925;52.436;-1.952;2024-03-02T21:50:14;5.43;;;4.95;;
66127;SDS011;52925;52.436;-1.952;2024-03-02T21:51:35;6.35;;;5.35;;
66127;SDS011;52925;52.436;-1.952;2024-03-02T21:52:56;6.32;;;5.72;;
66127;SDS011;52925;52.436;-1.952;2024-03-02T21:54:17;5.65;;;5.10;;
66127;SDS011;52925;52.436;-1.952;2024-03-02T21:55:38;5.47;;;4.97;;
66127;SDS011;52925;52.436;-1.952;2024-03-02T21:56:58;6.00;;;5.40;;
66127;SDS011;52925;52.436;-1.952;2024-03-02T21:58:24;5.65;;;5.15;;
66127;SDS011;52925;52.436;-1.952;2024-03-02T21:59:44;6.03;;;5.45;;
66127;SDS011;52925;52.436;-1.952;2024-03-02T22:01:06;6.32;;;5.72;;
66127;SDS011;52925;52.436;-1.952;2024-03-02T22:02:26;5.88;;;5.18;;
66127;SDS011;52925;52.436;-1.952;2024-03-02T22:03:47;6.65;;;5.50;;
66127;SDS011;52925;52.436;-1.952;2024-03-02T22:05:07;5.90;;;5.10;;
66127;SDS011;52925;52.436;-1.952;2024-03-02T22:06:27;5.88;;;5.28;;
66127;SDS011;52925;52.436;-1.952;2024-03-02T22:07:47;5.50;;;5.00;;
66127;SDS011;52925;52.436;-1.952;2024-03-02T22:09:08;5.38;;;4.82;;
66127;SDS011;52925;52.436;-1.952;2024-03-02T22:10:31;5.88;;;5.28;;
66127;SDS011;52925;52.436;-1.952;2024-03-02T22:11:52;5.63;;;5.10;;
66127;SDS011;52925;52.436;-1.952;2024-03-02T22:13:11;6.20;;;5.60;;
66127;SDS011;52925;52.436;-1.952;2024-03-02T22:14:32;5.97;;;5.20;;
66127;SDS011;52925;52.436;-1.952;2024-03-02T22:15:52;5.72;;;5.13;;
66127;SDS011;52925;52.436;-1.952;2024-03-02T22:17:14;6.32;;;5.15;;
66127;SDS011;52925;52.436;-1.952;2024-03-02T22:18:34;5.20;;;4.80;;
66127;SDS011;52925;52.436;-1.952;2024-03-02T22:19:55;5.28;;;4.78;;
66127;SDS011;52925;52.436;-1.952;2024-03-02T22:21:15;5.25;;;4.75;;
66127;SDS011;52925;52.436;-1.952;2024-03-02T22:22:36;5.30;;;4.80;;
66127;SDS011;52925;52.436;-1.952;2024-03-02T22:23:58;5.13;;;4.63;;
66127;SDS011;52925;52.436;-1.952;2024-03-02T22:25:18;5.95;;;4.80;;
66127;SDS011;52925;52.436;-1.952;2024-03-02T22:26:38;5.00;;;4.55;;
66127;SDS011;52925;52.436;-1.952;2024-03-02T22:27:59;5.25;;;4.75;;
66127;SDS011;52925;52.436;-1.952;2024-03-02T22:29:19;5.05;;;4.60;;
66127;SDS011;52925;52.436;-1.952;2024-03-02T22:30:40;5.18;;;4.68;;
66127;SDS011;52925;52.436;-1.952;2024-03-02T22:32:00;5.13;;;4.63;;
66127;SDS011;52925;52.436;-1.952;2024-03-02T22:33:22;4.90;;;4.32;;
66127;SDS011;52925;52.436;-1.952;2024-03-02T22:34:42;6.28;;;4.95;;
66127;SDS011;52925;52.436;-1.952;2024-03-02T22:36:05;5.43;;;4.55;;
66127;SDS011;52925;52.436;-1.952;2024-03-02T22:37:25;4.82;;;4.32;;
66127;SDS011;52925;52.436;-1.952;2024-03-02T22:38:46;4.75;;;4.35;;
66127;SDS011;52925;52.436;-1.952;2024-03-02T22:40:08;4.88;;;4.40;;
66127;SDS011;52925;52.436;-1.952;2024-03-02T22:41:29;4.90;;;4.40;;
66127;SDS011;52925;52.436;-1.952;2024-03-02T22:42:49;4.78;;;4.28;;
66127;SDS011;52925;52.436;-1.952;2024-03-02T22:44:10;4.90;;;4.40;;
66127;SDS011;52925;52.436;-1.952;2024-03-02T22:45:29;5.03;;;4.55;;
66127;SDS011;52925;52.436;-1.952;2024-03-02T22:46:50;4.93;;;4.40;;
66127;SDS011;52925;52.436;-1.952;2024-03-02T22:48:10;5.10;;;4.65;;
66127;SDS011;52925;52.436;-1.952;2024-03-02T22:49:32;5.80;;;4.75;;
66127;SDS011;52925;52.436;-1.952;2024-03-02T22:50:52;5.05;;;4.53;;
66127;SDS011;52925;52.436;-1.952;2024-03-02T22:52:14;5.10;;;4.40;;
66127;SDS011;52925;52.436;-1.952;2024-03-02T22:53:33;4.75;;;4.32;;
66127;SDS011;52925;52.436;-1.952;2024-03-02T22:54:55;6.00;;;4.45;;
66127;SDS011;52925;52.436;-1.952;2024-03-02T22:56:14;4.50;;;4.10;;
66127;SDS011;52925;52.436;-1.952;2024-03-02T22:57:35;5.15;;;4.00;;
66127;SDS011;52925;52.436;-1.952;2024-03-02T22:58:55;4.88;;;3.80;;
66127;SDS011;52925;52.436;-1.952;2024-03-02T23:00:16;4.63;;;3.92;;
66127;SDS011;52925;52.436;-1.952;2024-03-02T23:01:49;5.32;;;4.35;;
66127;SDS011;52925;52.436;-1.952;2024-03-02T23:03:10;4.28;;;3.67;;
66127;SDS011;52925;52.436;-1.952;2024-03-02T23:04:30;5.63;;;4.30;;
66127;SDS011;52925;52.436;-1.952;2024-03-02T23:05:52;4.25;;;3.85;;
66127;SDS011;52925;52.436;-1.952;2024-03-02T23:07:13;4.22;;;3.88;;
66127;SDS011;52925;52.436;-1.952;2024-03-02T23:08:37;4.57;;;4.18;;
66127;SDS011;52925;52.436;-1.952;2024-03-02T23:09:57;4.15;;;3.83;;
66127;SDS011;52925;52.436;-1.952;2024-03-02T23:11:18;4.40;;;3.85;;
66127;SDS011;52925;52.436;-1.952;2024-03-02T23:12:38;3.97;;;3.67;;
66127;SDS011;52925;52.436;-1.952;2024-03-02T23:13:58;4.13;;;3.72;;
